Time;durP1;ratioP1;P1;durP2;ratioP2;P2;SDS_P1;SDS_P2;PMS_P1;PMS_P2;Temp;Humidity;BMP_temperature;BMP_pressure;BME280_temperature;BME280_humidity;BME280_pressure;Samples;Min_cycle;Max_cycle;Signal;HPM_P1;HPM_P2
2022/08/25 00:00:28;;;;;;;4.00;1.85;;;;;;;22.86;60.55;98513.50;4982535;28;20022;-58
2022/08/25 00:02:54;;;;;;;4.70;1.80;;;;;;;22.71;60.08;98482.13;4997283;28;20330;-54
2022/08/25 00:05:20;;;;;;;5.00;1.77;;;;;;;22.83;60.77;98516.59;4995257;28;20463;-57
2022/08/25 00:07:45;;;;;;;4.63;1.80;;;;;;;22.80;60.86;98514.41;4995839;28;20032;-56
2022/08/25 00:10:11;;;;;;;3.88;1.70;;;;;;;22.67;60.91;98498.69;4999458;28;20828;-56
2022/08/25 00:12:36;;;;;;;4.85;1.75;;;;;;;22.44;61.86;98465.78;4996975;28;20022;-53
2022/08/25 00:15:02;;;;;;;4.45;1.70;;;;;;;22.72;61.72;98526.13;4999252;28;20093;-53
2022/08/25 00:17:28;;;;;;;4.13;1.73;;;;;;;22.63;61.64;98516.88;4997841;28;20037;-55
2022/08/25 00:19:53;;;;;;;3.78;1.85;;;;;;;22.69;61.66;98526.59;5001044;28;20977;-56
2022/08/25 00:22:19;;;;;;;5.43;2.10;;;;;;;22.65;61.99;98525.41;4999646;28;20114;-54
2022/08/25 00:24:44;;;;;;;6.25;1.98;;;;;;;22.64;62.00;98532.56;5005971;28;20029;-54
2022/08/25 00:27:11;;;;;;;4.55;1.65;;;;;;;22.72;61.92;98534.06;4994377;28;20038;-57
2022/08/25 00:29:37;;;;;;;8.00;2.10;;;;;;;22.78;61.90;98533.19;4981146;28;20045;-54
2022/08/25 00:32:04;;;;;;;6.03;1.92;;;;;;;22.75;62.10;98527.53;4999090;28;20018;-55
2022/08/25 00:34:33;;;;;;;5.85;2.00;;;;;;;22.68;62.17;98518.88;4999703;28;20045;-56
2022/08/25 00:36:59;;;;;;;5.00;1.73;;;;;;;22.52;62.40;98499.91;4996837;28;20026;-56
2022/08/25 00:39:25;;;;;;;4.70;1.85;;;;;;;22.62;63.24;98524.03;4995490;28;20037;-56
2022/08/25 00:41:52;;;;;;;4.13;1.90;;;;;;;22.64;62.78;98519.31;4999284;28;20033;-54
2022/08/25 00:44:18;;;;;;;4.90;2.10;;;;;;;22.68;63.46;98511.72;4997297;28;20037;-54
2022/08/25 00:46:49;;;;;;;5.65;2.00;;;;;;;22.73;63.45;98517.16;5002801;28;20063;-55
2022/08/25 00:49:19;;;;;;;5.05;2.03;;;;;;;22.72;63.46;98515.53;4992476;28;20037;-54
2022/08/25 00:51:51;;;;;;;6.18;2.10;;;;;;;22.68;64.28;98521.50;4996211;28;20044;-57
2022/08/25 00:54:24;;;;;;;5.68;2.10;;;;;;;22.74;64.25;98512.66;5003091;28;20033;-55
2022/08/25 00:56:50;;;;;;;4.78;2.10;;;;;;;22.61;64.73;98501.19;4990881;28;20026;-53
2022/08/25 00:59:18;;;;;;;4.10;2.13;;;;;;;22.74;64.80;98516.09;4998227;28;20527;-55
2022/08/25 01:01:44;;;;;;;4.82;1.75;;;;;;;22.61;64.70;98489.81;4997047;28;20030;-55
2022/08/25 01:04:09;;;;;;;4.30;2.05;;;;;;;22.67;64.91;98498.69;4996848;28;20029;-53
2022/08/25 01:06:38;;;;;;;4.03;2.00;;;;;;;22.65;64.71;98502.38;4996094;28;20076;-56
2022/08/25 01:09:06;;;;;;;3.88;1.90;;;;;;;22.62;64.50;98494.06;4996407;28;20646;-53
2022/08/25 01:11:33;;;;;;;6.80;2.15;;;;;;;22.56;65.32;98500.25;4999320;28;20038;-53
2022/08/25 01:14:02;;;;;;;7.20;2.05;;;;;;;22.53;65.88;98495.44;5002988;28;20033;-56
2022/08/25 01:16:28;;;;;;;4.07;2.05;;;;;;;22.55;66.36;98494.16;4994638;28;20088;-57
2022/08/25 01:18:56;;;;;;;4.78;2.10;;;;;;;22.56;66.60;98501.09;4989080;28;20173;-56
2022/08/25 01:21:24;;;;;;;5.10;1.90;;;;;;;22.56;66.77;98502.91;4996723;28;20436;-52
2022/08/25 01:23:51;;;;;;;5.22;1.88;;;;;;;22.33;66.76;98458.63;4993929;28;20053;-52
2022/08/25 01:26:26;;;;;;;5.97;2.05;;;;;;;22.55;66.86;98498.66;4999611;28;20714;-55
2022/08/25 01:31:37;;;;;;;6.75;2.28;;;;;;;22.48;67.12;98508.53;4994284;28;20085;-55
2022/08/25 01:34:04;;;;;;;4.70;1.90;;;;;;;22.17;66.65;98460.00;4999854;28;20038;-55
2022/08/25 01:36:30;;;;;;;5.00;2.00;;;;;;;22.31;67.62;98498.56;4995780;28;20109;-56
2022/08/25 01:38:56;;;;;;;4.65;2.00;;;;;;;22.34;68.25;98492.81;4988870;28;20056;-57
2022/08/25 01:41:28;;;;;;;6.07;2.17;;;;;;;22.48;67.80;98503.25;4993562;28;20286;-57
2022/08/25 01:43:53;;;;;;;5.13;2.20;;;;;;;22.45;67.73;98501.81;5000140;28;20034;-55
2022/08/25 01:46:18;;;;;;;7.10;2.15;;;;;;;22.17;68.29;98467.94;4986205;28;20626;-56
2022/08/25 01:48:44;;;;;;;4.82;2.00;;;;;;;22.32;68.85;98507.31;4997996;28;20818;-58
2022/08/25 01:51:09;;;;;;;4.47;2.13;;;;;;;22.34;69.28;98516.66;4997866;28;20030;-52
2022/08/25 01:53:35;;;;;;;5.53;2.20;;;;;;;22.41;69.17;98503.31;5001940;28;20511;-56
2022/08/25 01:56:12;;;;;;;5.10;2.42;;;;;;;22.36;69.81;98506.66;4997809;28;20048;-52
2022/08/25 01:58:41;;;;;;;4.60;2.00;;;;;;;22.06;69.51;98480.91;4992771;28;20082;-55
2022/08/25 02:01:10;;;;;;;6.20;2.30;;;;;;;22.38;69.82;98509.88;4984522;28;20030;-51
2022/08/25 02:03:39;;;;;;;4.57;1.90;;;;;;;22.40;69.21;98509.66;5002524;28;20033;-51
2022/08/25 02:06:05;;;;;;;4.78;2.10;;;;;;;22.42;69.07;98504.94;4998012;28;20029;-57
2022/08/25 02:08:31;;;;;;;4.03;1.95;;;;;;;22.34;69.55;98505.25;5000575;28;20583;-56
2022/08/25 02:10:56;;;;;;;4.35;2.00;;;;;;;22.38;69.43;98503.75;4999323;28;20049;-55
2022/08/25 02:13:22;;;;;;;5.78;2.15;;;;;;;22.06;71.48;98509.22;4998978;28;20038;-54
2022/08/25 02:15:51;;;;;;;5.55;2.22;;;;;;;22.22;71.12;98510.47;4997825;28;20498;-55
2022/08/25 02:18:17;;;;;;;5.70;2.10;;;;;;;22.19;71.17;98513.53;4999859;28;20501;-54
2022/08/25 02:20:43;;;;;;;5.10;2.30;;;;;;;22.15;71.25;98512.38;5001905;28;20029;-56
2022/08/25 02:23:09;;;;;;;4.68;2.25;;;;;;;21.99;72.36;98509.28;4996547;28;20064;-53
2022/08/25 02:25:37;;;;;;;4.32;2.10;;;;;;;21.74;73.31;98477.63;4997253;28;20069;-52
2022/08/25 02:28:03;;;;;;;7.40;2.45;;;;;;;21.99;73.29;98511.94;4999169;28;20120;-54
2022/08/25 02:30:28;;;;;;;4.40;2.40;;;;;;;21.98;73.34;98515.63;5000741;28;20124;-57
2022/08/25 02:32:54;;;;;;;7.03;2.55;;;;;;;21.89;73.23;98504.50;5001488;28;20105;-54
2022/08/25 02:35:19;;;;;;;5.40;2.47;;;;;;;22.04;72.65;98513.94;5001741;28;20409;-54
2022/08/25 02:37:45;;;;;;;4.75;2.33;;;;;;;21.96;73.29;98508.91;4997629;28;20100;-52
2022/08/25 02:40:11;;;;;;;6.90;2.83;;;;;;;21.97;73.26;98503.41;5005005;28;20549;-56
2022/08/25 02:42:37;;;;;;;6.68;2.58;;;;;;;21.90;73.30;98494.72;4999962;28;20045;-55
2022/08/25 02:45:03;;;;;;;6.40;2.53;;;;;;;21.82;73.54;98497.69;5002020;28;20026;-54
2022/08/25 02:47:30;;;;;;;5.95;2.50;;;;;;;21.84;73.59;98503.56;4999787;28;20775;-53
2022/08/25 02:49:56;;;;;;;5.55;2.53;;;;;;;21.87;73.95;98517.16;4995624;28;20172;-52
2022/08/25 02:52:21;;;;;;;5.28;2.30;;;;;;;21.65;73.66;98479.75;5003253;28;20777;-55
2022/08/25 02:54:46;;;;;;;5.47;2.70;;;;;;;21.82;73.61;98509.06;5001157;28;20053;-57
2022/08/25 02:57:12;;;;;;;5.45;2.38;;;;;;;21.65;73.89;98479.75;5005737;28;20065;-54
2022/08/25 02:59:38;;;;;;;4.57;2.22;;;;;;;21.93;73.84;98517.31;4999762;28;20022;-55
2022/08/25 03:02:04;;;;;;;5.35;2.55;;;;;;;21.91;73.17;98504.31;5001442;28;20042;-56
2022/08/25 03:04:30;;;;;;;4.70;2.40;;;;;;;21.83;74.06;98508.06;4999896;28;20036;-53
2022/08/25 03:06:57;;;;;;;7.88;2.65;;;;;;;21.81;73.99;98501.34;4995120;28;20215;-54
2022/08/25 03:09:23;;;;;;;4.63;2.30;;;;;;;21.84;73.74;98511.50;4998631;28;20029;-54
2022/08/25 03:11:48;;;;;;;5.40;2.53;;;;;;;21.82;73.79;98502.97;4992259;28;20068;-52
2022/08/25 03:14:14;;;;;;;4.82;2.40;;;;;;;21.55;73.96;98476.78;5007431;28;20038;-53
2022/08/25 03:16:41;;;;;;;4.95;2.60;;;;;;;21.76;73.86;98502.03;5006480;28;20585;-54
2022/08/25 03:19:06;;;;;;;4.75;2.70;;;;;;;21.75;73.88;98502.25;4999202;28;20049;-57
2022/08/25 03:21:32;;;;;;;4.53;2.38;;;;;;;21.52;73.95;98461.38;4994286;28;20038;-57
2022/08/25 03:23:57;;;;;;;5.88;2.83;;;;;;;21.79;73.84;98509.50;5004013;28;20419;-60
2022/08/25 03:29:07;;;;;;;5.82;2.50;;;;;;;21.78;73.75;98496.50;4997619;28;20052;-55
2022/08/25 03:31:33;;;;;;;5.43;2.60;;;;;;;21.56;73.87;98462.53;5001772;28;20026;-54
2022/08/25 03:33:59;;;;;;;5.20;2.30;;;;;;;21.67;73.97;98492.75;4995262;28;20028;-52
2022/08/25 03:36:26;;;;;;;4.25;2.25;;;;;;;21.77;73.58;98489.59;5000843;28;20042;-55
2022/08/25 03:38:52;;;;;;;6.30;2.40;;;;;;;21.71;73.78;98498.41;4995443;28;20037;-55
2022/08/25 03:41:28;;;;;;;4.97;2.45;;;;;;;21.68;74.24;98487.25;4997083;28;20046;-55
2022/08/25 03:43:54;;;;;;;5.20;2.30;;;;;;;21.39;74.13;98437.66;4997735;28;20030;-55
2022/08/25 03:46:23;;;;;;;5.68;2.50;;;;;;;21.63;74.68;98484.44;4994817;28;20630;-53
2022/08/25 03:48:49;;;;;;;;;;;;;;;21.62;74.48;98471.44;4995325;28;20181;-54
2022/08/25 03:51:36;;;;;;;4.97;2.38;;;;;;;21.58;74.83;98471.06;5000215;28;19917;-57
2022/08/25 03:54:03;;;;;;;5.45;2.72;;;;;;;21.61;75.09;98475.94;4998674;28;20083;-55
2022/08/25 03:56:29;;;;;;;4.82;2.38;;;;;;;21.57;75.02;98474.72;4998193;28;20216;-55
2022/08/25 03:58:55;;;;;;;5.10;2.30;;;;;;;21.55;74.68;98455.63;4993939;28;20026;-53
2022/08/25 04:01:20;;;;;;;6.18;2.30;;;;;;;21.58;74.36;98468.41;5003584;28;20741;-51
2022/08/25 04:03:46;;;;;;;5.30;2.45;;;;;;;21.56;74.14;98462.53;4996146;28;20901;-50
2022/08/25 04:06:12;;;;;;;7.32;2.45;;;;;;;21.47;74.66;98456.72;4999574;28;20392;-49
2022/08/25 04:08:38;;;;;;;5.15;2.58;;;;;;;21.35;74.64;98439.13;5031200;28;20129;-54
2022/08/25 04:11:16;;;;;;;5.20;2.70;;;;;;;21.54;74.75;98461.97;4993826;28;20132;-54
2022/08/25 04:13:42;;;;;;;5.40;2.50;;;;;;;21.58;73.93;98468.41;5001945;28;20426;-56
2022/08/25 04:16:34;;;;;;;4.57;2.50;;;;;;;21.50;74.11;98461.59;4994141;28;20125;-56
2022/08/25 04:19:01;;;;;;;4.93;2.47;;;;;;;21.51;73.85;98462.38;4987611;28;20038;-50
2022/08/25 04:21:27;;;;;;;5.00;2.47;;;;;;;21.56;73.55;98465.19;4991468;28;20518;-54
2022/08/25 04:23:54;;;;;;;6.25;2.50;;;;;;;21.49;73.98;98465.25;4996167;28;20034;-55
2022/08/25 04:26:32;;;;;;;7.60;2.85;;;;;;;21.50;73.95;98455.47;4999696;28;20745;-50
2022/08/25 04:28:59;;;;;;;4.50;2.60;;;;;;;21.47;73.83;98462.00;4993984;28;20026;-53
2022/08/25 04:31:25;;;;;;;6.10;2.60;;;;;;;21.52;73.46;98464.00;4995218;28;20030;-56
2022/08/25 04:33:50;;;;;;;5.15;2.60;;;;;;;21.43;73.65;98463.44;4993461;28;20113;-55
2022/08/25 04:36:17;;;;;;;4.93;2.42;;;;;;;21.11;73.86;98418.59;4993568;28;20477;-51
2022/08/25 04:38:44;;;;;;;6.35;2.70;;;;;;;21.44;73.29;98464.25;4988473;28;20034;-52
2022/08/25 04:41:10;;;;;;;5.40;2.58;;;;;;;21.39;72.95;98459.59;4988057;28;20044;-52
2022/08/25 04:43:37;;;;;;;6.82;3.03;;;;;;;21.40;73.19;98460.44;4975583;28;20030;-54
2022/08/25 04:46:11;;;;;;;6.32;2.45;;;;;;;21.35;72.82;98447.06;4992503;28;20033;-54
2022/08/25 04:48:38;;;;;;;6.32;2.50;;;;;;;21.40;73.05;98457.78;4989182;28;20034;-55
2022/08/25 04:51:12;;;;;;;4.88;2.50;;;;;;;21.43;72.37;98459.97;4996479;28;20098;-51
2022/08/25 04:53:38;;;;;;;5.60;2.40;;;;;;;21.35;72.12;98449.69;4994472;28;20486;-55
2022/08/25 04:56:09;;;;;;;5.57;2.70;;;;;;;21.43;71.94;98446.75;4994181;28;20469;-53
2022/08/25 04:58:35;;;;;;;6.30;2.85;;;;;;;21.37;71.83;98443.16;4997588;28;20034;-51
2022/08/25 05:01:05;;;;;;;6.07;2.53;;;;;;;21.20;71.81;98410.38;4988178;28;20125;-53
2022/08/25 05:03:31;;;;;;;4.75;2.20;;;;;;;21.47;71.58;98440.06;4985099;28;20113;-55
2022/08/25 05:05:57;;;;;;;5.07;2.60;;;;;;;21.40;71.79;98442.72;4988087;28;20033;-51
2022/08/25 05:08:22;;;;;;;5.18;2.25;;;;;;;21.38;72.26;98428.13;4985937;28;20133;-50
2022/08/25 05:10:49;;;;;;;5.60;2.75;;;;;;;21.10;72.43;98393.19;4986345;28;20036;-57
2022/08/25 05:13:15;;;;;;;4.43;2.53;;;;;;;21.09;72.71;98396.84;4973047;28;20077;-52
2022/08/25 05:15:49;;;;;;;6.70;2.50;;;;;;;21.40;72.59;98434.78;4988845;28;20030;-55
2022/08/25 05:18:16;;;;;;;7.15;2.80;;;;;;;21.28;72.86;98434.72;4986783;28;20053;-52
2022/08/25 05:20:41;;;;;;;5.65;2.70;;;;;;;21.07;72.97;98392.81;4989773;28;20030;-53
2022/08/25 05:23:07;;;;;;;5.97;2.47;;;;;;;21.12;73.13;98400.91;4989305;28;20044;-56
2022/08/25 05:25:32;;;;;;;6.85;2.70;;;;;;;21.31;73.36;98433.47;4984924;28;20026;-58
2022/08/25 05:27:57;;;;;;;5.50;2.70;;;;;;;21.28;73.71;98445.28;4988030;28;20385;-55
2022/08/25 05:30:23;;;;;;;9.40;2.67;;;;;;;21.27;73.80;98438.38;4992607;28;20038;-55
2022/08/25 05:32:48;;;;;;;4.82;2.20;;;;;;;21.31;73.81;98431.63;4990934;28;20041;-55
2022/08/25 05:35:14;;;;;;;7.32;2.47;;;;;;;21.00;73.98;98384.94;4994746;28;20416;-55
2022/08/25 05:37:40;;;;;;;5.47;2.50;;;;;;;21.37;73.67;98427.28;4994436;28;20027;-57
2022/08/25 05:40:07;;;;;;;6.72;2.28;;;;;;;21.21;73.65;98391.66;4988055;28;20555;-55
2022/08/25 05:42:32;;;;;;;4.63;2.50;;;;;;;21.36;74.09;98424.88;4974371;28;20038;-53
2022/08/25 05:44:58;;;;;;;6.38;2.85;;;;;;;21.07;73.91;98380.41;4990166;28;20481;-56
2022/08/25 05:47:23;;;;;;;5.20;2.80;;;;;;;21.34;74.07;98418.97;4988516;28;20050;-55
2022/08/25 05:49:49;;;;;;;6.88;2.45;;;;;;;21.33;74.56;98427.97;4995925;28;20501;-57
2022/08/25 05:52:14;;;;;;;6.93;2.72;;;;;;;21.28;74.50;98429.44;4994477;28;20261;-56
2022/08/25 05:54:40;;;;;;;6.47;2.45;;;;;;;21.31;74.37;98431.63;4993370;28;20105;-56
2022/08/25 05:57:05;;;;;;;6.38;2.40;;;;;;;21.30;74.06;98424.72;4997835;28;20038;-57
2022/08/25 05:59:31;;;;;;;5.90;2.50;;;;;;;21.36;73.74;98420.41;4998217;28;20041;-55
2022/08/25 06:04:41;;;;;;;4.32;2.58;;;;;;;21.20;74.49;98410.38;4996793;28;20127;-55
2022/08/25 06:07:06;;;;;;;5.80;2.60;;;;;;;21.27;74.00;98408.50;4997147;28;20488;-55
2022/08/25 06:09:32;;;;;;;5.60;2.67;;;;;;;21.26;74.30;98415.59;4998647;28;20036;-55
2022/08/25 06:11:57;;;;;;;5.18;2.42;;;;;;;21.16;74.46;98399.44;5006533;28;20642;-56
2022/08/25 06:14:23;;;;;;;4.53;2.67;;;;;;;21.31;74.10;98423.69;5000067;28;20037;-55
2022/08/25 06:16:50;;;;;;;6.07;2.90;;;;;;;21.25;74.15;98416.63;5001723;28;20026;-55
2022/08/25 06:19:16;;;;;;;5.35;2.67;;;;;;;21.30;74.13;98421.25;4998153;28;20037;-57
2022/08/25 06:21:42;;;;;;;5.15;2.80;;;;;;;21.20;74.05;98419.13;4998578;28;20033;-52
2022/08/25 06:24:09;;;;;;;5.25;2.67;;;;;;;21.09;73.85;98393.41;5001515;28;20026;-56
2022/08/25 06:26:36;;;;;;;4.40;2.60;;;;;;;21.24;74.18;98415.00;5002993;28;20452;-56
2022/08/25 06:29:01;;;;;;;4.85;2.50;;;;;;;21.24;74.37;98424.78;5003811;28;20064;-60
2022/08/25 06:31:26;;;;;;;7.38;2.50;;;;;;;21.24;73.91;98422.94;5004976;28;20022;-60
2022/08/25 06:33:52;;;;;;;7.30;2.53;;;;;;;21.33;72.86;98422.66;5001287;28;20687;-59
2022/08/25 06:36:18;;;;;;;6.20;2.63;;;;;;;21.38;72.47;98409.59;4998688;28;20044;-59
2022/08/25 06:38:44;;;;;;;5.97;2.60;;;;;;;21.24;71.91;98382.47;4997465;28;20488;-58
2022/08/25 06:41:11;;;;;;;5.43;2.67;;;;;;;21.21;71.79;98377.63;4978811;28;20045;-59
2022/08/25 06:43:38;;;;;;;5.80;2.63;;;;;;;21.41;73.13;98409.16;4984079;28;20052;-58
2022/08/25 06:46:15;;;;;;;19.67;4.38;;;;;;;21.48;72.60;98401.97;4998156;28;20224;-57
2022/08/25 06:48:41;;;;;;;16.08;3.65;;;;;;;21.46;72.04;98401.41;4993213;28;20053;-58
2022/08/25 06:51:12;;;;;;;6.55;2.90;;;;;;;21.49;71.82;98400.97;4999633;28;20365;-59
2022/08/25 06:53:37;;;;;;;5.85;2.88;;;;;;;21.51;71.42;98398.91;5002453;28;20030;-59
2022/08/25 06:56:04;;;;;;;8.52;3.75;;;;;;;21.47;71.79;98395.09;4999633;28;20721;-59
2022/08/25 06:58:30;;;;;;;8.55;3.00;;;;;;;21.22;72.01;98361.53;4983834;28;20473;-58
2022/08/25 07:00:55;;;;;;;4.60;2.65;;;;;;;21.48;71.33;98400.16;4999322;28;20052;-61
2022/08/25 07:03:21;;;;;;;5.65;2.92;;;;;;;21.49;71.24;98398.31;4993406;28;20452;-62
2022/08/25 07:05:51;;;;;;;4.78;2.63;;;;;;;21.36;71.15;98374.63;4998594;28;20402;-59
2022/08/25 07:08:18;;;;;;;4.72;2.70;;;;;;;21.23;71.43;98352.59;5004783;28;20043;-59
2022/08/25 07:10:43;;;;;;;5.07;2.75;;;;;;;21.39;71.64;98393.50;5001695;28;20033;-57
2022/08/25 07:13:08;;;;;;;5.57;2.60;;;;;;;21.48;71.86;98399.34;4998819;28;20120;-59
2022/08/25 07:15:38;;;;;;;5.32;2.90;;;;;;;21.31;68.41;98356.78;4999153;28;20026;-59
2022/08/25 07:18:03;;;;;;;4.57;2.33;;;;;;;21.51;68.65;98377.75;4979441;28;20390;-60
2022/08/25 07:20:30;;;;;;;5.13;2.63;;;;;;;21.40;69.97;98366.03;4997652;28;20069;-58
2022/08/25 07:22:56;;;;;;;5.97;2.70;;;;;;;21.65;69.78;98389.00;4996394;28;20866;-61
2022/08/25 07:25:22;;;;;;;6.35;2.38;;;;;;;21.54;67.07;98350.03;4998175;28;20018;-58
2022/08/25 07:27:47;;;;;;;4.40;2.28;;;;;;;21.91;65.16;98381.75;4997526;28;20080;-60
2022/08/25 07:30:12;;;;;;;7.50;2.50;;;;;;;21.92;65.58;98386.78;4998628;28;20398;-58
2022/08/25 07:32:38;;;;;;;6.18;2.50;;;;;;;21.93;65.30;98388.44;5002503;28;20030;-57
2022/08/25 07:35:16;;;;;;;4.63;2.55;;;;;;;21.97;65.55;98384.28;4997547;28;20041;-58
2022/08/25 07:37:47;;;;;;;7.10;2.70;;;;;;;21.94;66.74;98381.28;5005019;28;20032;-58
2022/08/25 07:40:16;;;;;;;6.40;2.75;;;;;;;21.89;67.56;98368.75;5002150;28;20033;-59
2022/08/25 07:42:42;;;;;;;6.53;2.60;;;;;;;21.82;67.22;98365.38;4982336;28;20036;-58
2022/08/25 07:45:09;;;;;;;6.68;2.72;;;;;;;22.01;67.07;98377.53;4995741;28;20033;-58
2022/08/25 07:47:35;;;;;;;6.70;2.83;;;;;;;21.96;67.85;98373.91;4993319;28;20557;-59
2022/08/25 07:50:01;;;;;;;7.28;2.63;;;;;;;21.99;67.37;98376.94;4982848;28;20041;-60
2022/08/25 07:52:27;;;;;;;6.32;2.53;;;;;;;21.83;67.06;98335.22;4991718;28;20049;-59
2022/08/25 07:54:53;;;;;;;5.45;2.63;;;;;;;22.05;66.93;98376.06;4988159;28;20199;-57
2022/08/25 07:57:21;;;;;;;4.65;2.75;;;;;;;22.06;67.61;98376.84;4998268;28;20616;-58
2022/08/25 07:59:46;;;;;;;5.38;2.60;;;;;;;22.07;68.46;98373.97;4998897;28;20026;-59
2022/08/25 08:02:12;;;;;;;5.97;2.40;;;;;;;22.15;68.78;98386.09;4999341;28;20033;-58
2022/08/25 08:04:37;;;;;;;5.35;2.60;;;;;;;22.18;69.38;98383.00;4998724;28;20030;-61
2022/08/25 08:07:04;;;;;;;6.60;2.78;;;;;;;21.90;69.78;98330.63;4996200;28;20122;-59
2022/08/25 08:09:32;;;;;;;6.43;3.15;;;;;;;21.94;70.50;98350.34;4996358;28;20140;-58
2022/08/25 08:11:57;;;;;;;4.85;2.70;;;;;;;22.00;70.38;98357.38;5000846;28;20101;-58
2022/08/25 08:14:23;;;;;;;4.70;2.42;;;;;;;21.96;70.50;98352.75;4999976;28;20208;-59
2022/08/25 08:16:49;;;;;;;4.75;2.55;;;;;;;22.19;67.21;98384.59;4998448;28;20038;-59
2022/08/25 08:19:15;;;;;;;7.82;2.35;;;;;;;22.27;67.81;98379.03;5000498;28;20446;-60
2022/08/25 08:21:41;;;;;;;6.47;2.40;;;;;;;22.25;70.93;98391.66;4989576;28;20025;-60
2022/08/25 08:24:07;;;;;;;5.22;2.47;;;;;;;22.29;69.41;98388.56;4995427;28;20029;-58
2022/08/25 08:26:32;;;;;;;5.07;2.35;;;;;;;22.29;69.20;98378.81;4995235;28;20870;-61
2022/08/25 08:28:58;;;;;;;4.32;2.33;;;;;;;22.36;68.30;98387.47;4998455;28;20049;-61
2022/08/25 08:31:25;;;;;;;6.55;2.28;;;;;;;23.10;65.40;98379.16;4992875;28;20037;-60
2022/08/25 08:33:52;;;;;;;5.55;2.47;;;;;;;25.10;59.66;98389.97;4998188;28;20121;-62
2022/08/25 08:36:17;;;;;;;6.15;2.58;;;;;;;26.55;53.33;98374.56;5002265;28;20030;-60
2022/08/25 08:38:44;;;;;;;4.38;2.20;;;;;;;27.50;49.04;98347.16;4996848;28;20497;-59
2022/08/25 08:44:26;;;;;;;5.80;2.40;;;;;;;28.89;45.20;98369.53;4993481;28;20889;-59
2022/08/25 08:47:03;;;;;;;8.15;2.88;;;;;;;29.07;44.62;98370.84;4986886;28;20117;-59
2022/08/25 08:49:50;;;;;;;6.25;2.45;;;;;;;29.44;42.59;98380.38;4986848;28;20044;-59
2022/08/25 08:52:18;;;;;;;5.93;2.08;;;;;;;29.28;41.77;98372.41;4989401;28;20815;-61
2022/08/25 08:54:45;;;;;;;4.30;1.85;;;;;;;28.67;43.44;98335.84;4967715;28;20030;-61
2022/08/25 08:57:15;;;;;;;5.63;2.33;;;;;;;28.48;44.17;98348.16;4993976;28;20030;-58
2022/08/25 09:00:01;;;;;;;5.80;2.15;;;;;;;27.46;47.12;98364.78;4990888;28;20027;-61
2022/08/25 09:03:05;;;;;;;7.15;2.17;;;;;;;26.63;48.46;98363.47;4993199;28;20030;-59
2022/08/25 09:05:35;;;;;;;4.70;2.50;;;;;;;26.11;49.86;98372.84;4994852;28;20040;-57
2022/08/25 09:08:07;;;;;;;5.07;2.30;;;;;;;25.78;51.27;98360.50;4971928;28;20033;-61
2022/08/25 09:10:52;;;;;;;4.60;2.40;;;;;;;25.72;52.01;98364.97;4992466;28;20034;-59
2022/08/25 09:13:28;;;;;;;8.35;2.50;;;;;;;25.59;51.67;98368.00;5000457;28;20069;-58
2022/08/25 09:19:02;;;;;;;5.32;2.38;;;;;;;25.61;52.97;98364.06;4995138;28;20520;-59
2022/08/25 09:21:27;;;;;;;5.28;2.60;;;;;;;25.57;52.12;98354.13;4990869;28;21090;-57
2022/08/25 09:24:17;;;;;;;4.63;2.40;;;;;;;25.67;52.17;98343.63;4993601;28;20643;-61
2022/08/25 09:26:52;;;;;;;5.88;2.40;;;;;;;25.55;52.74;98350.91;4992564;28;20094;-58
2022/08/25 09:29:22;;;;;;;5.82;3.00;;;;;;;25.55;52.32;98346.41;4975885;28;20389;-61
2022/08/25 09:31:47;;;;;;;7.32;3.30;;;;;;;25.43;51.80;98313.81;4994634;28;20038;-61
2022/08/25 09:34:23;;;;;;;6.30;2.80;;;;;;;25.46;51.97;98345.22;4992420;28;20666;-59
2022/08/25 09:36:51;;;;;;;4.45;2.40;;;;;;;25.50;54.12;98341.84;4992230;28;20034;-59
2022/08/25 09:39:18;;;;;;;5.03;2.70;;;;;;;25.41;53.46;98321.22;4992577;28;20136;-59
2022/08/25 09:41:48;;;;;;;7.13;2.60;;;;;;;25.50;52.71;98333.84;4994937;28;20150;-61
2022/08/25 09:44:36;;;;;;;6.93;2.40;;;;;;;25.50;53.47;98322.38;4999301;28;20033;-59
2022/08/25 09:47:01;;;;;;;6.45;2.35;;;;;;;25.36;52.68;98284.72;4986283;28;20070;-57
2022/08/25 09:49:36;;;;;;;5.50;2.92;;;;;;;25.40;53.57;98282.34;4991860;28;20385;-58
2022/08/25 09:52:25;;;;;;;7.05;2.85;;;;;;;25.91;53.31;98306.84;4995483;28;20555;-60
2022/08/25 09:54:52;;;;;;;9.20;2.75;;;;;;;26.01;50.04;98303.50;4981175;28;20318;-60
2022/08/25 09:57:49;;;;;;;10.57;2.88;;;;;;;25.99;50.90;98305.59;4969305;28;20346;-58
2022/08/25 10:00:30;;;;;;;6.90;2.80;;;;;;;25.97;50.06;98302.41;4996638;28;20037;-58
2022/08/25 10:03:19;;;;;;;8.95;3.10;;;;;;;26.00;48.82;98302.69;4993339;28;20022;-61
2022/08/25 10:05:55;;;;;;;;;;;;;;;26.05;48.94;98297.41;4984252;28;20062;-58
2022/08/25 10:08:25;;;;;;;5.32;2.88;;;;;;;26.08;49.90;98299.59;4995122;28;19928;-58
2022/08/25 10:10:58;;;;;;;6.47;3.00;;;;;;;26.14;50.87;98291.63;4987949;28;20111;-58
2022/08/25 10:13:59;;;;;;;8.43;3.00;;;;;;;26.17;52.04;98289.25;4998155;28;20092;-57
2022/08/25 10:16:31;;;;;;;6.32;2.75;;;;;;;26.29;52.03;98289.09;4999772;28;20038;-59
2022/08/25 10:19:13;;;;;;;4.57;2.63;;;;;;;26.58;54.62;98275.44;4995955;28;20041;-59
2022/08/25 10:21:41;;;;;;;7.00;3.00;;;;;;;26.76;51.46;98282.22;5000168;28;20040;-60
2022/08/25 10:24:11;;;;;;;5.00;2.58;;;;;;;26.69;52.37;98276.31;4994241;28;20034;-60
2022/08/25 10:26:42;;;;;;;8.25;2.65;;;;;;;26.83;49.89;98266.78;4986553;28;20111;-57
2022/08/25 10:29:17;;;;;;;4.63;2.33;;;;;;;26.91;51.28;98271.63;4995209;28;20458;-57
2022/08/25 10:31:51;;;;;;;5.32;2.50;;;;;;;27.14;50.91;98243.69;4995522;28;20037;-61
2022/08/25 10:34:42;;;;;;;5.43;2.28;;;;;;;27.36;50.97;98248.91;4994022;28;20133;-60
2022/08/25 10:37:34;;;;;;;6.15;2.30;;;;;;;27.46;49.46;98240.09;4981789;28;20100;-57
2022/08/25 10:40:06;;;;;;;5.10;2.67;;;;;;;27.47;50.24;98236.34;4977212;28;20022;-60
2022/08/25 10:43:09;;;;;;;5.30;2.30;;;;;;;27.58;49.34;98235.31;4990173;28;20068;-59
2022/08/25 10:45:44;;;;;;;5.35;2.40;;;;;;;27.51;49.99;98229.44;4989219;28;20350;-61
2022/08/25 10:48:31;;;;;;;6.20;2.45;;;;;;;27.48;48.58;98221.94;4984959;28;20112;-58
2022/08/25 10:51:18;;;;;;;5.13;2.35;;;;;;;27.34;49.37;98194.16;4983355;28;20042;-58
2022/08/25 10:54:12;;;;;;;5.15;2.25;;;;;;;27.62;47.54;98211.56;4990193;28;20037;-61
2022/08/25 10:56:42;;;;;;;4.30;2.20;;;;;;;27.75;46.42;98212.91;4985317;28;20038;-61
2022/08/25 10:59:16;;;;;;;4.20;2.00;;;;;;;27.72;45.85;98211.56;4973885;28;20042;-59
2022/08/25 11:01:48;;;;;;;5.32;2.22;;;;;;;27.54;47.21;98204.06;4989745;28;20057;-60
2022/08/25 11:04:25;;;;;;;7.05;2.38;;;;;;;27.50;44.76;98209.13;4969996;28;20151;-57
2022/08/25 11:07:00;;;;;;;5.10;2.10;;;;;;;27.54;43.70;98190.72;4973548;28;20030;-58
2022/08/25 11:09:32;;;;;;;5.18;2.20;;;;;;;27.71;45.02;98201.97;4972598;28;20064;-60
2022/08/25 11:12:01;;;;;;;4.20;1.92;;;;;;;27.71;41.44;98193.13;4976329;28;20036;-58
2022/08/25 11:14:37;;;;;;;5.97;2.08;;;;;;;27.77;44.47;98190.19;4979764;28;20038;-58
2022/08/25 11:17:03;;;;;;;5.93;1.80;;;;;;;27.86;39.76;98162.97;4972684;28;20667;-57
2022/08/25 11:19:29;;;;;;;4.07;1.95;;;;;;;27.92;40.76;98184.06;4995978;28;20033;-57
2022/08/25 11:22:03;;;;;;;4.40;1.80;;;;;;;27.79;40.88;98181.91;4995066;28;20120;-58
2022/08/25 11:24:44;;;;;;;5.63;1.83;;;;;;;27.78;39.73;98173.13;4987743;28;20026;-57
2022/08/25 11:27:17;;;;;;;5.15;1.88;;;;;;;27.95;40.13;98169.41;4998230;28;20034;-58
2022/08/25 11:30:07;;;;;;;3.95;1.70;;;;;;;28.08;39.50;98170.72;4982584;28;20116;-60
2022/08/25 11:32:34;;;;;;;4.25;1.80;;;;;;;28.21;38.06;98172.03;4996336;28;20121;-60
2022/08/25 11:35:03;;;;;;;5.03;1.73;;;;;;;28.18;37.93;98160.00;4996975;28;20034;-60
2022/08/25 11:37:30;;;;;;;6.18;1.85;;;;;;;28.19;38.04;98158.94;4987283;28;20065;-60
2022/08/25 11:40:09;;;;;;;4.30;1.90;;;;;;;28.34;36.90;98150.06;4990867;28;20547;-59
2022/08/25 11:43:13;;;;;;;5.13;1.80;;;;;;;28.04;36.85;98102.84;4988662;28;20038;-57
2022/08/25 11:45:50;;;;;;;5.75;1.88;;;;;;;28.24;37.28;98121.50;4989518;28;20113;-59
2022/08/25 11:48:16;;;;;;;4.40;1.67;;;;;;;28.46;36.86;98157.78;4995436;28;20120;-59
2022/08/25 11:51:08;;;;;;;4.90;1.73;;;;;;;28.48;36.52;98148.41;4992098;28;20030;-59
2022/08/25 11:53:41;;;;;;;4.05;1.90;;;;;;;28.36;36.64;98135.34;4988883;28;20664;-61
2022/08/25 11:56:29;;;;;;;3.50;1.70;;;;;;;28.76;36.10;98138.16;4988522;28;20890;-59
2022/08/25 11:58:54;;;;;;;4.15;1.50;;;;;;;28.54;35.94;98115.25;4984335;28;20036;-61